sensor_id;sensor_type;location;lat;lon;timestamp;P1;durP1;ratioP1;P2;durP2;ratioP2
8042;SDS011;4064;48.132;11.366;2022-08-26T00:01:39;16.83;;;13.67;;
8042;SDS011;4064;48.132;11.366;2022-08-26T00:04:06;16.37;;;13.80;;
8042;SDS011;4064;48.132;11.366;2022-08-26T00:06:32;15.90;;;13.90;;
8042;SDS011;4064;48.132;11.366;2022-08-26T00:08:59;18.17;;;13.67;;
8042;SDS011;4064;48.132;11.366;2022-08-26T00:11:25;15.40;;;13.30;;
8042;SDS011;4064;48.132;11.366;2022-08-26T00:13:51;15.13;;;13.40;;
8042;SDS011;4064;48.132;11.366;2022-08-26T00:16:17;19.40;;;15.03;;
8042;SDS011;4064;48.132;11.366;2022-08-26T00:18:42;17.03;;;14.83;;
8042;SDS011;4064;48.132;11.366;2022-08-26T00:21:08;15.20;;;13.60;;
8042;SDS011;4064;48.132;11.366;2022-08-26T00:23:35;17.73;;;15.80;;
8042;SDS011;4064;48.132;11.366;2022-08-26T00:26:01;17.30;;;13.20;;
8042;SDS011;4064;48.132;11.366;2022-08-26T00:28:28;16.20;;;14.50;;
8042;SDS011;4064;48.132;11.366;2022-08-26T00:30:53;18.93;;;14.70;;
8042;SDS011;4064;48.132;11.366;2022-08-26T00:33:19;22.40;;;14.90;;
8042;SDS011;4064;48.132;11.366;2022-08-26T00:35:45;20.50;;;15.13;;
8042;SDS011;4064;48.132;11.366;2022-08-26T00:38:12;17.00;;;14.03;;
8042;SDS011;4064;48.132;11.366;2022-08-26T00:40:41;15.90;;;13.97;;
8042;SDS011;4064;48.132;11.366;2022-08-26T00:43:09;19.43;;;15.10;;
8042;SDS011;4064;48.132;11.366;2022-08-26T00:45:43;17.93;;;13.63;;
8042;SDS011;4064;48.132;11.366;2022-08-26T00:48:15;17.53;;;15.63;;
8042;SDS011;4064;48.132;11.366;2022-08-26T00:50:55;15.40;;;13.87;;
8042;SDS011;4064;48.132;11.366;2022-08-26T00:53:27;15.80;;;13.20;;
8042;SDS011;4064;48.132;11.366;2022-08-26T00:55:57;19.40;;;15.00;;
8042;SDS011;4064;48.132;11.366;2022-08-26T00:58:28;17.63;;;13.23;;
8042;SDS011;4064;48.132;11.366;2022-08-26T01:00:56;16.63;;;14.87;;
8042;SDS011;4064;48.132;11.366;2022-08-26T01:03:23;16.63;;;14.00;;
8042;SDS011;4064;48.132;11.366;2022-08-26T01:05:52;19.23;;;14.93;;
8042;SDS011;4064;48.132;11.366;2022-08-26T01:08:21;22.57;;;16.00;;
8042;SDS011;4064;48.132;11.366;2022-08-26T01:10:48;19.37;;;16.27;;
8042;SDS011;4064;48.132;11.366;2022-08-26T01:13:14;15.77;;;13.70;;
8042;SDS011;4064;48.132;11.366;2022-08-26T01:15:42;17.43;;;14.60;;
8042;SDS011;4064;48.132;11.366;2022-08-26T01:18:10;20.27;;;14.80;;
8042;SDS011;4064;48.132;11.366;2022-08-26T01:23:11;19.63;;;15.50;;
8042;SDS011;4064;48.132;11.366;2022-08-26T01:25:41;20.40;;;15.60;;
8042;SDS011;4064;48.132;11.366;2022-08-26T01:28:11;19.10;;;14.13;;
8042;SDS011;4064;48.132;11.366;2022-08-26T01:30:41;16.97;;;14.97;;
8042;SDS011;4064;48.132;11.366;2022-08-26T01:33:10;18.03;;;15.30;;
8042;SDS011;4064;48.132;11.366;2022-08-26T01:35:40;18.57;;;14.00;;
8042;SDS011;4064;48.132;11.366;2022-08-26T01:38:06;17.27;;;15.23;;
8042;SDS011;4064;48.132;11.366;2022-08-26T01:40:35;17.93;;;15.20;;
8042;SDS011;4064;48.132;11.366;2022-08-26T01:43:02;19.50;;;15.77;;
8042;SDS011;4064;48.132;11.366;2022-08-26T01:45:32;16.40;;;13.80;;
8042;SDS011;4064;48.132;11.366;2022-08-26T01:48:00;16.17;;;14.47;;
8042;SDS011;4064;48.132;11.366;2022-08-26T01:50:33;16.43;;;14.60;;
8042;SDS011;4064;48.132;11.366;2022-08-26T01:53:04;15.97;;;14.37;;
8042;SDS011;4064;48.132;11.366;2022-08-26T01:55:32;18.47;;;16.63;;
8042;SDS011;4064;48.132;11.366;2022-08-26T01:58:00;23.67;;;14.57;;
8042;SDS011;4064;48.132;11.366;2022-08-26T02:00:30;20.10;;;15.80;;
8042;SDS011;4064;48.132;11.366;2022-08-26T02:02:56;17.77;;;15.97;;
8042;SDS011;4064;48.132;11.366;2022-08-26T02:05:49;26.00;;;15.40;;
8042;SDS011;4064;48.132;11.366;2022-08-26T02:08:25;16.67;;;13.83;;
8042;SDS011;4064;48.132;11.366;2022-08-26T02:10:55;17.20;;;15.40;;
8042;SDS011;4064;48.132;11.366;2022-08-26T02:13:21;23.17;;;15.40;;
8042;SDS011;4064;48.132;11.366;2022-08-26T02:15:49;17.70;;;15.13;;
8042;SDS011;4064;48.132;11.366;2022-08-26T02:18:16;19.90;;;15.10;;
8042;SDS011;4064;48.132;11.366;2022-08-26T02:20:42;15.87;;;14.27;;
8042;SDS011;4064;48.132;11.366;2022-08-26T02:23:08;20.33;;;14.87;;
8042;SDS011;4064;48.132;11.366;2022-08-26T02:25:38;15.50;;;13.90;;
8042;SDS011;4064;48.132;11.366;2022-08-26T02:28:12;16.80;;;14.20;;
8042;SDS011;4064;48.132;11.366;2022-08-26T02:30:38;19.67;;;15.83;;
8042;SDS011;4064;48.132;11.366;2022-08-26T02:33:05;19.40;;;13.67;;
8042;SDS011;4064;48.132;11.366;2022-08-26T02:35:31;15.83;;;14.13;;
8042;SDS011;4064;48.132;11.366;2022-08-26T02:37:59;21.70;;;14.83;;
8042;SDS011;4064;48.132;11.366;2022-08-26T02:40:28;18.40;;;14.50;;
8042;SDS011;4064;48.132;11.366;2022-08-26T02:42:58;18.47;;;13.73;;
8042;SDS011;4064;48.132;11.366;2022-08-26T02:45:23;20.90;;;14.50;;
8042;SDS011;4064;48.132;11.366;2022-08-26T02:47:51;17.80;;;16.10;;
8042;SDS011;4064;48.132;11.366;2022-08-26T02:50:18;16.67;;;14.83;;
8042;SDS011;4064;48.132;11.366;2022-08-26T02:52:44;15.77;;;14.20;;
8042;SDS011;4064;48.132;11.366;2022-08-26T02:55:10;18.60;;;15.37;;
8042;SDS011;4064;48.132;11.366;2022-08-26T02:57:36;19.77;;;15.23;;
8042;SDS011;4064;48.132;11.366;2022-08-26T03:00:03;16.53;;;14.73;;
8042;SDS011;4064;48.132;11.366;2022-08-26T03:02:30;21.20;;;15.43;;
8042;SDS011;4064;48.132;11.366;2022-08-26T03:04:56;15.93;;;14.33;;
8042;SDS011;4064;48.132;11.366;2022-08-26T03:07:22;16.27;;;14.30;;
8042;SDS011;4064;48.132;11.366;2022-08-26T03:09:48;18.13;;;14.93;;
8042;SDS011;4064;48.132;11.366;2022-08-26T03:12:14;17.60;;;14.70;;
8042;SDS011;4064;48.132;11.366;2022-08-26T03:14:40;31.73;;;14.70;;
8042;SDS011;4064;48.132;11.366;2022-08-26T03:17:05;22.37;;;15.60;;
8042;SDS011;4064;48.132;11.366;2022-08-26T03:19:31;19.07;;;15.30;;
8042;SDS011;4064;48.132;11.366;2022-08-26T03:21:57;17.97;;;14.63;;
8042;SDS011;4064;48.132;11.366;2022-08-26T03:24:23;18.13;;;14.43;;
8042;SDS011;4064;48.132;11.366;2022-08-26T03:26:50;19.40;;;14.77;;
8042;SDS011;4064;48.132;11.366;2022-08-26T03:29:15;18.43;;;15.17;;
8042;SDS011;4064;48.132;11.366;2022-08-26T03:31:59;18.20;;;14.27;;
8042;SDS011;4064;48.132;11.366;2022-08-26T03:34:25;16.07;;;14.47;;
8042;SDS011;4064;48.132;11.366;2022-08-26T03:36:52;18.20;;;15.07;;
8042;SDS011;4064;48.132;11.366;2022-08-26T03:39:17;20.93;;;14.03;;
8042;SDS011;4064;48.132;11.366;2022-08-26T03:41:43;17.97;;;15.57;;
8042;SDS011;4064;48.132;11.366;2022-08-26T03:44:09;17.20;;;15.40;;
8042;SDS011;4064;48.132;11.366;2022-08-26T03:46:36;16.83;;;15.10;;
8042;SDS011;4064;48.132;11.366;2022-08-26T03:49:02;17.53;;;15.17;;
8042;SDS011;4064;48.132;11.366;2022-08-26T03:51:30;18.30;;;15.90;;
8042;SDS011;4064;48.132;11.366;2022-08-26T03:53:56;17.37;;;14.53;;
8042;SDS011;4064;48.132;11.366;2022-08-26T03:56:24;15.90;;;14.20;;
8042;SDS011;4064;48.132;11.366;2022-08-26T03:58:51;21.13;;;15.47;;
8042;SDS011;4064;48.132;11.366;2022-08-26T04:01:17;21.23;;;15.77;;
8042;SDS011;4064;48.132;11.366;2022-08-26T04:03:43;17.50;;;15.23;;
8042;SDS011;4064;48.132;11.366;2022-08-26T04:06:29;18.30;;;14.43;;
8042;SDS011;4064;48.132;11.366;2022-08-26T04:08:58;18.23;;;16.23;;
8042;SDS011;4064;48.132;11.366;2022-08-26T04:11:26;18.70;;;15.80;;
8042;SDS011;4064;48.132;11.366;2022-08-26T04:13:55;17.40;;;15.27;;
8042;SDS011;4064;48.132;11.366;2022-08-26T04:16:25;15.63;;;14.03;;
8042;SDS011;4064;48.132;11.366;2022-08-26T04:18:52;19.63;;;15.83;;
8042;SDS011;4064;48.132;11.366;2022-08-26T04:21:18;15.23;;;12.90;;
8042;SDS011;4064;48.132;11.366;2022-08-26T04:23:44;21.13;;;14.47;;
8042;SDS011;4064;48.132;11.366;2022-08-26T04:26:10;16.10;;;14.20;;
8042;SDS011;4064;48.132;11.366;2022-08-26T04:28:36;21.60;;;16.50;;
8042;SDS011;4064;48.132;11.366;2022-08-26T04:31:01;20.73;;;16.50;;
8042;SDS011;4064;48.132;11.366;2022-08-26T04:33:27;21.70;;;16.00;;
8042;SDS011;4064;48.132;11.366;2022-08-26T04:36:00;17.83;;;16.03;;
8042;SDS011;4064;48.132;11.366;2022-08-26T04:38:27;20.70;;;15.53;;
8042;SDS011;4064;48.132;11.366;2022-08-26T04:40:54;19.93;;;16.57;;
8042;SDS011;4064;48.132;11.366;2022-08-26T04:43:20;19.23;;;15.10;;
8042;SDS011;4064;48.132;11.366;2022-08-26T04:45:46;18.23;;;15.73;;
8042;SDS011;4064;48.132;11.366;2022-08-26T04:48:11;19.50;;;15.70;;
8042;SDS011;4064;48.132;11.366;2022-08-26T04:50:37;16.60;;;14.90;;
8042;SDS011;4064;48.132;11.366;2022-08-26T04:53:03;17.13;;;15.33;;
8042;SDS011;4064;48.132;11.366;2022-08-26T04:55:29;19.40;;;15.63;;
8042;SDS011;4064;48.132;11.366;2022-08-26T04:57:55;17.13;;;15.33;;
8042;SDS011;4064;48.132;11.366;2022-08-26T05:00:20;18.20;;;16.23;;
8042;SDS011;4064;48.132;11.366;2022-08-26T05:02:47;18.10;;;14.67;;
8042;SDS011;4064;48.132;11.366;2022-08-26T05:05:13;23.23;;;16.23;;
8042;SDS011;4064;48.132;11.366;2022-08-26T05:07:39;17.37;;;15.50;;
8042;SDS011;4064;48.132;11.366;2022-08-26T05:10:05;24.33;;;17.37;;
8042;SDS011;4064;48.132;11.366;2022-08-26T05:12:31;22.00;;;16.27;;
8042;SDS011;4064;48.132;11.366;2022-08-26T05:14:57;26.50;;;18.07;;
8042;SDS011;4064;48.132;11.366;2022-08-26T05:17:23;20.47;;;17.50;;
8042;SDS011;4064;48.132;11.366;2022-08-26T05:19:51;18.70;;;15.93;;
8042;SDS011;4064;48.132;11.366;2022-08-26T05:22:17;17.83;;;16.03;;
8042;SDS011;4064;48.132;11.366;2022-08-26T05:24:44;20.13;;;17.13;;
8042;SDS011;4064;48.132;11.366;2022-08-26T05:27:10;18.03;;;16.13;;
8042;SDS011;4064;48.132;11.366;2022-08-26T05:29:37;19.40;;;17.37;;
8042;SDS011;4064;48.132;11.366;2022-08-26T05:32:03;19.53;;;15.97;;
8042;SDS011;4064;48.132;11.366;2022-08-26T05:34:29;17.00;;;15.10;;
8042;SDS011;4064;48.132;11.366;2022-08-26T05:36:56;17.83;;;14.93;;
8042;SDS011;4064;48.132;11.366;2022-08-26T05:39:22;25.87;;;17.13;;
8042;SDS011;4064;48.132;11.366;2022-08-26T05:41:48;17.80;;;15.37;;
8042;SDS011;4064;48.132;11.366;2022-08-26T05:44:15;22.93;;;16.17;;
8042;SDS011;4064;48.132;11.366;2022-08-26T05:46:43;17.73;;;15.93;;
8042;SDS011;4064;48.132;11.366;2022-08-26T05:49:09;18.87;;;16.10;;
8042;SDS011;4064;48.132;11.366;2022-08-26T05:51:36;18.00;;;15.70;;
8042;SDS011;4064;48.132;11.366;2022-08-26T05:54:03;17.83;;;16.03;;
8042;SDS011;4064;48.132;11.366;2022-08-26T05:56:30;17.03;;;15.43;;
8042;SDS011;4064;48.132;11.366;2022-08-26T05:58:57;19.27;;;15.53;;
8042;SDS011;4064;48.132;11.366;2022-08-26T06:01:25;15.90;;;14.23;;
8042;SDS011;4064;48.132;11.366;2022-08-26T06:03:53;16.90;;;13.00;;
8042;SDS011;4064;48.132;11.366;2022-08-26T06:06:23;19.70;;;15.00;;
8042;SDS011;4064;48.132;11.366;2022-08-26T06:08:51;13.97;;;12.67;;
8042;SDS011;4064;48.132;11.366;2022-08-26T06:11:19;19.83;;;14.73;;
8042;SDS011;4064;48.132;11.366;2022-08-26T06:13:49;16.47;;;14.83;;
8042;SDS011;4064;48.132;11.366;2022-08-26T06:16:17;17.97;;;13.67;;
8042;SDS011;4064;48.132;11.366;2022-08-26T06:18:45;15.97;;;14.33;;
8042;SDS011;4064;48.132;11.366;2022-08-26T06:23:40;17.37;;;15.57;;
8042;SDS011;4064;48.132;11.366;2022-08-26T06:26:25;15.77;;;14.10;;
8042;SDS011;4064;48.132;11.366;2022-08-26T06:28:51;16.07;;;14.10;;
8042;SDS011;4064;48.132;11.366;2022-08-26T06:31:16;23.50;;;15.37;;
8042;SDS011;4064;48.132;11.366;2022-08-26T06:33:42;18.43;;;14.90;;
8042;SDS011;4064;48.132;11.366;2022-08-26T06:36:13;17.13;;;13.53;;
8042;SDS011;4064;48.132;11.366;2022-08-26T06:38:44;17.87;;;14.70;;
8042;SDS011;4064;48.132;11.366;2022-08-26T06:41:11;16.53;;;13.87;;
8042;SDS011;4064;48.132;11.366;2022-08-26T06:43:37;14.17;;;12.70;;
8042;SDS011;4064;48.132;11.366;2022-08-26T06:46:05;14.23;;;12.67;;
8042;SDS011;4064;48.132;11.366;2022-08-26T06:48:34;18.20;;;13.67;;
8042;SDS011;4064;48.132;11.366;2022-08-26T06:51:10;14.13;;;12.77;;
8042;SDS011;4064;48.132;11.366;2022-08-26T06:53:41;17.20;;;12.70;;
8042;SDS011;4064;48.132;11.366;2022-08-26T06:56:10;14.33;;;13.03;;
8042;SDS011;4064;48.132;11.366;2022-08-26T06:58:37;17.00;;;11.90;;
8042;SDS011;4064;48.132;11.366;2022-08-26T07:01:04;17.70;;;13.13;;
8042;SDS011;4064;48.132;11.366;2022-08-26T07:03:41;13.77;;;12.37;;
8042;SDS011;4064;48.132;11.366;2022-08-26T07:06:07;19.47;;;12.37;;
8042;SDS011;4064;48.132;11.366;2022-08-26T07:08:33;13.80;;;12.23;;
8042;SDS011;4064;48.132;11.366;2022-08-26T07:11:02;15.90;;;12.90;;
8042;SDS011;4064;48.132;11.366;2022-08-26T07:13:30;14.60;;;13.27;;
8042;SDS011;4064;48.132;11.366;2022-08-26T07:15:56;15.07;;;12.93;;
8042;SDS011;4064;48.132;11.366;2022-08-26T07:18:22;15.20;;;13.37;;
8042;SDS011;4064;48.132;11.366;2022-08-26T07:20:47;13.43;;;12.10;;
8042;SDS011;4064;48.132;11.366;2022-08-26T07:23:13;15.23;;;13.20;;
8042;SDS011;4064;48.132;11.366;2022-08-26T07:25:39;17.60;;;14.07;;
8042;SDS011;4064;48.132;11.366;2022-08-26T07:28:06;20.33;;;14.00;;
8042;SDS011;4064;48.132;11.366;2022-08-26T07:30:32;12.80;;;11.57;;
8042;SDS011;4064;48.132;11.366;2022-08-26T07:33:03;13.10;;;11.80;;
8042;SDS011;4064;48.132;11.366;2022-08-26T07:35:28;13.50;;;12.20;;
8042;SDS011;4064;48.132;11.366;2022-08-26T07:37:54;14.13;;;12.10;;
8042;SDS011;4064;48.132;11.366;2022-08-26T07:40:20;13.13;;;11.47;;
8042;SDS011;4064;48.132;11.366;2022-08-26T07:42:46;12.70;;;11.03;;
8042;SDS011;4064;48.132;11.366;2022-08-26T07:45:12;12.97;;;11.80;;
8042;SDS011;4064;48.132;11.366;2022-08-26T07:47:37;14.00;;;12.10;;
8042;SDS011;4064;48.132;11.366;2022-08-26T07:50:05;11.40;;;10.40;;
8042;SDS011;4064;48.132;11.366;2022-08-26T07:52:31;14.30;;;11.97;;
8042;SDS011;4064;48.132;11.366;2022-08-26T07:54:57;12.30;;;11.07;;
8042;SDS011;4064;48.132;11.366;2022-08-26T07:57:25;11.10;;;9.67;;
8042;SDS011;4064;48.132;11.366;2022-08-26T07:59:52;10.23;;;9.00;;
8042;SDS011;4064;48.132;11.366;2022-08-26T08:02:19;11.53;;;10.53;;
8042;SDS011;4064;48.132;11.366;2022-08-26T08:04:44;12.30;;;10.63;;
8042;SDS011;4064;48.132;11.366;2022-08-26T08:07:10;11.23;;;10.07;;
8042;SDS011;4064;48.132;11.366;2022-08-26T08:09:36;10.23;;;9.23;;
8042;SDS011;4064;48.132;11.366;2022-08-26T08:12:03;11.23;;;9.40;;
8042;SDS011;4064;48.132;11.366;2022-08-26T08:14:29;12.63;;;11.37;;
8042;SDS011;4064;48.132;11.366;2022-08-26T08:16:55;12.30;;;10.60;;
8042;SDS011;4064;48.132;11.366;2022-08-26T08:19:21;11.30;;;8.80;;
8042;SDS011;4064;48.132;11.366;2022-08-26T08:21:48;13.70;;;8.70;;
8042;SDS011;4064;48.132;11.366;2022-08-26T08:24:14;11.17;;;10.17;;
8042;SDS011;4064;48.132;11.366;2022-08-26T08:26:39;10.50;;;9.60;;
8042;SDS011;4064;48.132;11.366;2022-08-26T08:29:06;10.53;;;9.53;;
8042;SDS011;4064;48.132;11.366;2022-08-26T08:31:33;13.37;;;9.57;;
8042;SDS011;4064;48.132;11.366;2022-08-26T08:33:59;9.73;;;8.83;;
8042;SDS011;4064;48.132;11.366;2022-08-26T08:36:25;10.87;;;9.77;;
8042;SDS011;4064;48.132;11.366;2022-08-26T08:38:51;11.03;;;9.40;;
8042;SDS011;4064;48.132;11.366;2022-08-26T08:44:12;9.17;;;8.37;;
8042;SDS011;4064;48.132;11.366;2022-08-26T08:46:43;11.83;;;10.77;;
8042;SDS011;4064;48.132;11.366;2022-08-26T08:49:10;10.00;;;9.00;;
8042;SDS011;4064;48.132;11.366;2022-08-26T08:54:09;9.83;;;9.03;;
8042;SDS011;4064;48.132;11.366;2022-08-26T08:56:40;11.67;;;10.60;;
8042;SDS011;4064;48.132;11.366;2022-08-26T09:04:45;14.73;;;9.87;;
8042;SDS011;4064;48.132;11.366;2022-08-26T09:07:30;13.33;;;9.07;;
8042;SDS011;4064;48.132;11.366;2022-08-26T09:10:04;9.33;;;8.40;;
8042;SDS011;4064;48.132;11.366;2022-08-26T09:12:48;10.10;;;9.20;;
8042;SDS011;4064;48.132;11.366;2022-08-26T09:23:12;10.63;;;9.53;;
8042;SDS011;4064;48.132;11.366;2022-08-26T09:28:40;9.07;;;8.17;;
8042;SDS011;4064;48.132;11.366;2022-08-26T09:33:45;8.80;;;8.00;;
8042;SDS011;4064;48.132;11.366;2022-08-26T09:39:09;9.17;;;8.27;;
8042;SDS011;4064;48.132;11.366;2022-08-26T09:42:02;8.70;;;7.80;;
8042;SDS011;4064;48.132;11.366;2022-08-26T09:44:30;8.63;;;7.93;;
8042;SDS011;4064;48.132;11.366;2022-08-26T09:46:58;7.97;;;7.37;;
8042;SDS011;4064;48.132;11.366;2022-08-26T09:54:31;8.27;;;7.47;;
8042;SDS011;4064;48.132;11.366;2022-08-26T09:57:17;9.10;;;8.40;;
8042;SDS011;4064;48.132;11.366;2022-08-26T09:59:46;8.70;;;7.93;;
8042;SDS011;4064;48.132;11.366;2022-08-26T10:04:52;8.03;;;7.33;;
8042;SDS011;4064;48.132;11.366;2022-08-26T10:10:21;9.43;;;8.73;;
8042;SDS011;4064;48.132;11.366;2022-08-26T10:12:55;8.67;;;7.87;;
8042;SDS011;4064;48.132;11.366;2022-08-26T10:15:27;9.47;;;8.57;;
8042;SDS011;4064;48.132;11.366;2022-08-26T10:21:03;10.03;;;7.87;;
8042;SDS011;4064;48.132;11.366;2022-08-26T10:23:43;9.43;;;8.60;;
8042;SDS011;4064;48.132;11.366;2022-08-26T10:26:18;11.03;;;8.90;;
8042;SDS011;4064;48.132;11.366;2022-08-26T10:32:11;9.90;;;7.40;;
8042;SDS011;4064;48.132;11.366;2022-08-26T10:34:43;9.67;;;7.77;;
8042;SDS011;4064;48.132;11.366;2022-08-26T10:45:03;8.07;;;7.27;;
8042;SDS011;4064;48.132;11.366;2022-08-26T10:48:06;9.93;;;6.90;;
8042;SDS011;4064;48.132;11.366;2022-08-26T10:50:35;7.87;;;7.17;;
8042;SDS011;4064;48.132;11.366;2022-08-26T11:09:54;8.90;;;7.00;;
8042;SDS011;4064;48.132;11.366;2022-08-26T11:15:00;9.03;;;6.80;;
8042;SDS011;4064;48.132;11.366;2022-08-26T11:20:09;13.30;;;7.20;;
8042;SDS011;4064;48.132;11.366;2022-08-26T11:23:44;10.30;;;7.60;;
8042;SDS011;4064;48.132;11.366;2022-08-26T11:28:34;7.70;;;7.00;;
8042;SDS011;4064;48.132;11.366;2022-08-26T11:31:00;10.40;;;6.50;;
8042;SDS011;4064;48.132;11.366;2022-08-26T11:36:26;10.30;;;6.90;;
8042;SDS011;4064;48.132;11.366;2022-08-26T11:39:03;9.27;;;6.47;;
8042;SDS011;4064;48.132;11.366;2022-08-26T11:41:41;17.17;;;6.60;;
8042;SDS011;4064;48.132;11.366;2022-08-26T11:44:07;9.93;;;6.50;;
8042;SDS011;4064;48.132;11.366;2022-08-26T11:46:34;7.77;;;5.77;;
8042;SDS011;4064;48.132;11.366;2022-08-26T11:49:05;8.93;;;6.70;;
8042;SDS011;4064;48.132;11.366;2022-08-26T11:51:32;8.50;;;6.07;;
8042;SDS011;4064;48.132;11.366;2022-08-26T11:54:09;9.40;;;6.50;;
8042;SDS011;4064;48.132;11.366;2022-08-26T11:56:41;9.80;;;7.30;;
8042;SDS011;4064;48.132;11.366;2022-08-26T11:59:10;8.57;;;6.37;;
8042;SDS011;4064;48.132;11.366;2022-08-26T12:01:42;8.07;;;6.67;;
8042;SDS011;4064;48.132;11.366;2022-08-26T12:04:35;7.83;;;6.13;;
8042;SDS011;4064;48.132;11.366;2022-08-26T12:07:01;11.70;;;6.50;;
8042;SDS011;4064;48.132;11.366;2022-08-26T12:09:32;6.10;;;5.70;;
8042;SDS011;4064;48.132;11.366;2022-08-26T12:15:02;7.63;;;6.70;;
8042;SDS011;4064;48.132;11.366;2022-08-26T12:17:43;8.67;;;5.30;;
8042;SDS011;4064;48.132;11.366;2022-08-26T12:20:27;7.43;;;5.50;;
8042;SDS011;4064;48.132;11.366;2022-08-26T12:23:20;7.13;;;5.33;;
8042;SDS011;4064;48.132;11.366;2022-08-26T12:26:26;5.80;;;5.27;;
8042;SDS011;4064;48.132;11.366;2022-08-26T12:31:44;5.97;;;5.33;;
8042;SDS011;4064;48.132;11.366;2022-08-26T12:34:10;8.80;;;6.00;;
8042;SDS011;4064;48.132;11.366;2022-08-26T12:36:42;5.30;;;4.47;;
8042;SDS011;4064;48.132;11.366;2022-08-26T12:39:28;10.80;;;4.80;;
8042;SDS011;4064;48.132;11.366;2022-08-26T12:41:55;5.90;;;5.10;;
8042;SDS011;4064;48.132;11.366;2022-08-26T12:50:04;7.17;;;5.80;;
8042;SDS011;4064;48.132;11.366;2022-08-26T12:52:31;6.60;;;4.63;;
8042;SDS011;4064;48.132;11.366;2022-08-26T12:55:06;5.67;;;4.63;;
8042;SDS011;4064;48.132;11.366;2022-08-26T12:57:44;7.30;;;4.77;;
8042;SDS011;4064;48.132;11.366;2022-08-26T13:01:17;5.50;;;4.43;;
8042;SDS011;4064;48.132;11.366;2022-08-26T13:08:54;7.70;;;5.20;;
8042;SDS011;4064;48.132;11.366;2022-08-26T13:14:01;7.73;;;4.93;;
8042;SDS011;4064;48.132;11.366;2022-08-26T13:16:38;5.93;;;5.20;;
8042;SDS011;4064;48.132;11.366;2022-08-26T13:19:08;7.97;;;4.90;;
8042;SDS011;4064;48.132;11.366;2022-08-26T13:21:45;5.40;;;4.40;;
8042;SDS011;4064;48.132;11.366;2022-08-26T13:26:56;5.90;;;4.53;;
8042;SDS011;4064;48.132;11.366;2022-08-26T13:29:22;4.77;;;3.97;;
8042;SDS011;4064;48.132;11.366;2022-08-26T13:31:48;5.70;;;5.20;;
8042;SDS011;4064;48.132;11.366;2022-08-26T13:34:16;4.30;;;3.90;;
8042;SDS011;4064;48.132;11.366;2022-08-26T13:36:44;5.33;;;4.40;;
8042;SDS011;4064;48.132;11.366;2022-08-26T13:39:14;7.63;;;4.73;;
8042;SDS011;4064;48.132;11.366;2022-08-26T13:41:41;5.10;;;4.60;;
8042;SDS011;4064;48.132;11.366;2022-08-26T13:44:08;5.80;;;4.53;;
8042;SDS011;4064;48.132;11.366;2022-08-26T13:46:33;8.17;;;4.40;;
8042;SDS011;4064;48.132;11.366;2022-08-26T13:48:59;4.70;;;4.30;;
8042;SDS011;4064;48.132;11.366;2022-08-26T13:51:26;4.43;;;3.90;;
8042;SDS011;4064;48.132;11.366;2022-08-26T13:53:53;4.73;;;4.30;;
8042;SDS011;4064;48.132;11.366;2022-08-26T13:56:18;3.83;;;3.40;;
8042;SDS011;4064;48.132;11.366;2022-08-26T13:58:45;7.60;;;3.53;;
8042;SDS011;4064;48.132;11.366;2022-08-26T14:01:12;3.30;;;3.00;;
8042;SDS011;4064;48.132;11.366;2022-08-26T14:03:38;6.13;;;3.20;;
8042;SDS011;4064;48.132;11.366;2022-08-26T14:06:05;4.83;;;3.47;;
8042;SDS011;4064;48.132;11.366;2022-08-26T14:08:30;4.40;;;3.03;;
8042;SDS011;4064;48.132;11.366;2022-08-26T14:10:56;4.43;;;3.23;;
8042;SDS011;4064;48.132;11.366;2022-08-26T14:13:23;3.70;;;3.20;;
8042;SDS011;4064;48.132;11.366;2022-08-26T14:15:48;4.10;;;3.30;;
8042;SDS011;4064;48.132;11.366;2022-08-26T14:18:15;4.30;;;3.03;;
8042;SDS011;4064;48.132;11.366;2022-08-26T14:20:46;4.70;;;4.00;;
8042;SDS011;4064;48.132;11.366;2022-08-26T14:23:13;8.20;;;5.20;;
8042;SDS011;4064;48.132;11.366;2022-08-26T14:25:40;7.10;;;4.43;;
8042;SDS011;4064;48.132;11.366;2022-08-26T14:28:06;8.00;;;5.50;;
8042;SDS011;4064;48.132;11.366;2022-08-26T14:30:32;7.80;;;5.67;;
8042;SDS011;4064;48.132;11.366;2022-08-26T14:32:58;7.30;;;5.50;;
8042;SDS011;4064;48.132;11.366;2022-08-26T14:35:25;10.47;;;6.43;;
8042;SDS011;4064;48.132;11.366;2022-08-26T14:37:53;8.97;;;4.73;;
8042;SDS011;4064;48.132;11.366;2022-08-26T14:40:19;4.87;;;4.40;;
8042;SDS011;4064;48.132;11.366;2022-08-26T14:42:47;9.00;;;5.63;;
8042;SDS011;4064;48.132;11.366;2022-08-26T14:45:16;7.43;;;5.70;;
8042;SDS011;4064;48.132;11.366;2022-08-26T14:47:44;9.40;;;5.30;;
8042;SDS011;4064;48.132;11.366;2022-08-26T14:50:12;7.60;;;4.80;;
8042;SDS011;4064;48.132;11.366;2022-08-26T14:52:39;9.27;;;5.40;;
8042;SDS011;4064;48.132;11.366;2022-08-26T14:55:24;7.50;;;5.10;;
8042;SDS011;4064;48.132;11.366;2022-08-26T14:57:50;13.63;;;6.07;;
8042;SDS011;4064;48.132;11.366;2022-08-26T15:00:16;6.67;;;5.00;;
8042;SDS011;4064;48.132;11.366;2022-08-26T15:02:43;9.00;;;5.50;;
8042;SDS011;4064;48.132;11.366;2022-08-26T15:05:09;7.43;;;6.17;;
8042;SDS011;4064;48.132;11.366;2022-08-26T15:07:39;6.93;;;6.23;;
8042;SDS011;4064;48.132;11.366;2022-08-26T15:10:06;9.33;;;6.07;;
8042;SDS011;4064;48.132;11.366;2022-08-26T15:12:35;9.73;;;6.17;;
8042;SDS011;4064;48.132;11.366;2022-08-26T15:15:02;9.30;;;5.67;;
8042;SDS011;4064;48.132;11.366;2022-08-26T15:17:28;9.47;;;5.80;;
8042;SDS011;4064;48.132;11.366;2022-08-26T15:19:55;6.50;;;5.67;;
8042;SDS011;4064;48.132;11.366;2022-08-26T15:22:21;8.93;;;5.90;;
8042;SDS011;4064;48.132;11.366;2022-08-26T15:24:49;7.57;;;6.57;;
8042;SDS011;4064;48.132;11.366;2022-08-26T15:27:14;7.67;;;6.50;;
8042;SDS011;4064;48.132;11.366;2022-08-26T15:29:40;7.40;;;6.53;;
8042;SDS011;4064;48.132;11.366;2022-08-26T15:32:06;6.97;;;6.07;;
8042;SDS011;4064;48.132;11.366;2022-08-26T15:34:32;8.00;;;5.67;;
8042;SDS011;4064;48.132;11.366;2022-08-26T15:36:58;6.83;;;5.33;;
8042;SDS011;4064;48.132;11.366;2022-08-26T15:39:23;10.47;;;6.10;;
8042;SDS011;4064;48.132;11.366;2022-08-26T15:41:49;8.77;;;5.60;;
8042;SDS011;4064;48.132;11.366;2022-08-26T15:44:15;8.77;;;5.90;;
8042;SDS011;4064;48.132;11.366;2022-08-26T15:46:43;7.60;;;6.10;;
8042;SDS011;4064;48.132;11.366;2022-08-26T15:49:11;6.50;;;5.30;;
8042;SDS011;4064;48.132;11.366;2022-08-26T15:51:38;8.60;;;6.60;;
8042;SDS011;4064;48.132;11.366;2022-08-26T15:54:05;8.70;;;7.57;;
8042;SDS011;4064;48.132;11.366;2022-08-26T15:56:32;10.80;;;6.17;;
8042;SDS011;4064;48.132;11.366;2022-08-26T15:59:00;10.00;;;6.40;;
8042;SDS011;4064;48.132;11.366;2022-08-26T16:01:26;12.40;;;8.30;;
8042;SDS011;4064;48.132;11.366;2022-08-26T16:03:53;10.70;;;7.20;;
8042;SDS011;4064;48.132;11.366;2022-08-26T16:06:20;13.00;;;7.83;;
8042;SDS011;4064;48.132;11.366;2022-08-26T16:08:48;10.70;;;7.60;;
8042;SDS011;4064;48.132;11.366;2022-08-26T16:11:16;12.30;;;8.43;;
8042;SDS011;4064;48.132;11.366;2022-08-26T16:13:45;10.63;;;7.37;;
8042;SDS011;4064;48.132;11.366;2022-08-26T16:16:11;12.47;;;7.83;;
8042;SDS011;4064;48.132;11.366;2022-08-26T16:18:50;10.07;;;7.57;;
8042;SDS011;4064;48.132;11.366;2022-08-26T16:21:17;10.60;;;8.13;;
8042;SDS011;4064;48.132;11.366;2022-08-26T16:23:45;12.47;;;8.30;;
8042;SDS011;4064;48.132;11.366;2022-08-26T16:26:12;7.57;;;6.60;;
8042;SDS011;4064;48.132;11.366;2022-08-26T16:28:40;13.97;;;8.27;;
8042;SDS011;4064;48.132;11.366;2022-08-26T16:31:07;10.43;;;8.07;;
8042;SDS011;4064;48.132;11.366;2022-08-26T16:33:34;10.40;;;8.43;;
8042;SDS011;4064;48.132;11.366;2022-08-26T16:36:01;9.20;;;7.80;;
8042;SDS011;4064;48.132;11.366;2022-08-26T16:38:28;10.90;;;7.77;;
8042;SDS011;4064;48.132;11.366;2022-08-26T16:40:54;9.10;;;7.50;;
8042;SDS011;4064;48.132;11.366;2022-08-26T16:43:19;14.27;;;7.97;;